Terminal Aerodrome Forecast
Issued by NWS Pocatello, ID

Home | Current Version | Previous Version | Text Only | Print | Product List | Glossary On
Versions: 1 2 3 4 5 6 7 8 9 10 11 12 13 14 15 16
515
FTUS45 KPIH 120520
TAFBYI
TAF
KBYI 120520Z 1206/1306 VRB05KT P6SM SCT090 SCT140
     FM121400 09010KT P6SM BKN140 BKN160
     FM122100 VRB05KT P6SM SCT180=

USA.gov is the U.S. government's official web portal to all federal, state and local government web resources and services.